3 Oak — V7YJ3 — position and weather

sailwx.info

Track history (hours):
 
Tides and Currents Weather Stations Pressure Air Temp Water Temp Dewpoint Dewpoint Depression Visibility Wind Speed Wind Dir Waves Ship Positions

3 Oak

Last reported at 2017-Oct-30 11:35 UTC. Time now 2017-Nov-22 18:38 UTC.
Position N 27°05' W 016°02'.
Warning: this ship's position is 23 days out of date.

Length 125 m; draft 6.8 m.

Type: Cargo ship. MMSI: 538004672.

Date/timePositionNaut miles runAvg speedWind from/ knotsBaromVisibWave heightAir tempDewpointWater temp
2017-Oct-30 11:35N 27°05' W 016°02'0 1.8
2017-Oct-30 11:28N 27°05' W 016°02'72 1.8
2017-Oct-28 18:54N 28°08' W 015°24'0 0.0
2017-Oct-28 18:24N 28°08' W 015°24'0 0.0
2017-Oct-28 17:54N 28°08' W 015°24'0 0.1
2017-Oct-28 17:24N 28°08' W 015°24'0 0.0
2017-Oct-28 16:54N 28°08' W 015°24'0 0.1
2017-Oct-28 16:24N 28°08' W 015°24'0 0.1
2017-Oct-28 15:57N 28°08' W 015°24'0 0.0
2017-Oct-28 15:27N 28°08' W 015°24'0 0.0
2017-Oct-28 14:57N 28°08' W 015°24'0 0.0
2017-Oct-28 14:27N 28°08' W 015°24'0 0.0
2017-Oct-28 13:57N 28°08' W 015°24'0 0.0
2017-Oct-28 13:27N 28°08' W 015°24'0 0.1
2017-Oct-28 13:00N 28°08' W 015°24'0 0.0
2017-Oct-28 12:30N 28°08' W 015°24'0 0.0
2017-Oct-28 12:00N 28°08' W 015°24'0 0.0
2017-Oct-28 11:30N 28°08' W 015°24'0 0.0
2017-Oct-28 11:00N 28°08' W 015°24'0 0.0
2017-Oct-28 10:30N 28°08' W 015°24'0 0.1
2017-Oct-28 10:00N 28°08' W 015°24'0 0.4
2017-Oct-28 09:30N 28°08' W 015°24'0 0.5
2017-Oct-28 09:00N 28°08' W 015°23'1 1.8
2017-Oct-28 08:30N 28°08' W 015°22'2 3.8
2017-Oct-28 08:00N 28°10' W 015°21'3 5.9
2017-Oct-28 07:30N 28°12' W 015°19'5 9.4
2017-Oct-28 07:00N 28°15' W 015°16'4 8.1
2017-Oct-28 06:30N 28°18' W 015°13'4 8.2
2017-Oct-28 06:00N 28°22' W 015°10'4 8.6
2017-Oct-28 05:30N 28°25' W 015°07'510.8
2017-Oct-28 05:00N 28°29' W 015°03'510.9
2017-Oct-28 04:30N 28°33' W 014°59'510.7
2017-Oct-28 04:00N 28°37' W 014°55'510.5
2017-Oct-28 03:30N 28°42' W 014°51'510.4
2017-Oct-28 03:00N 28°46' W 014°48'510.2
2017-Oct-28 02:31N 28°50' W 014°44'510.2
2017-Oct-28 02:00N 28°53' W 014°40'510.2
2017-Oct-28 01:30N 28°57' W 014°36'510.2
2017-Oct-28 01:01N 29°01' W 014°33'510.4
2017-Oct-28 00:30N 29°06' W 014°29'510.7
2017-Oct-28 00:01N 29°10' W 014°25'510.8
2017-Oct-27 23:31N 29°14' W 014°21'510.7
2017-Oct-27 23:00N 29°18' W 014°17'510.6
2017-Oct-27 22:31N 29°22' W 014°14'510.6
2017-Oct-27 22:00N 29°26' W 014°10'510.7
2017-Oct-27 21:31N 29°30' W 014°06'510.8
2017-Oct-27 21:00N 29°35' W 014°02'510.9
2017-Oct-27 20:30N 29°39' W 013°58'510.6
2017-Oct-27 20:00N 29°43' W 013°54'510.6
2017-Oct-27 19:30N 29°47' W 013°50'510.5
2017-Oct-27 19:00N 29°51' W 013°46'42 7.9
2017-Oct-27 13:38N 30°24' W 013°16'1 6.6
2017-Oct-27 13:28N 30°25' W 013°15'612.1
2017-Oct-27 13:00N 30°29' W 013°11'2811.0
2017-Oct-27 10:26N 30°51' W 012°50'4 9.8
2017-Oct-27 10:00N 30°54' W 012°47'5 9.8
2017-Oct-27 09:30N 30°58' W 012°43'5 9.8
2017-Oct-27 09:00N 31°02' W 012°39'31 9.8
2017-Oct-27 05:52N 31°26' W 012°17'3 9.7
2017-Oct-27 05:31N 31°29' W 012°15'11 9.8
2017-Oct-27 04:20N 31°38' W 012°07'12910.2
2017-Oct-26 15:43N 33°17' W 010°30'210.0
2017-Oct-26 15:31N 33°19' W 010°28'9 9.9
2017-Oct-26 14:38N 33°25' W 010°21'1 9.9
2017-Oct-26 14:31N 33°26' W 010°20'6 9.9
2017-Oct-26 13:56N 33°31' W 010°16'410.0
2017-Oct-26 13:30N 33°34' W 010°13'510.1
2017-Oct-26 13:00N 33°38' W 010°09'510.0
2017-Oct-26 12:29N 33°42' W 010°05'2710.1
2017-Oct-26 09:46N 34°03' W 009°44'310.2
2017-Oct-26 09:30N 34°05' W 009°42'510.2
2017-Oct-26 09:00N 34°09' W 009°38'510.0
2017-Oct-26 08:28N 34°14' W 009°34'510.2
2017-Oct-26 07:59N 34°18' W 009°31'510.2
2017-Oct-26 07:30N 34°21' W 009°27'510.0
2017-Oct-26 07:01N 34°25' W 009°23'510.0
2017-Oct-26 06:30N 34°29' W 009°19'5 9.9
2017-Oct-26 06:00N 34°33' W 009°15'5 9.9
2017-Oct-26 05:30N 34°36' W 009°11'510.0
2017-Oct-26 04:58N 34°40' W 009°07'2010.1
2017-Oct-26 03:00N 34°56' W 008°52'910.0
2017-Oct-26 02:05N 35°02' W 008°44'2 9.9
2017-Oct-26 01:52N 35°04' W 008°42'710.5
2017-Oct-26 01:14N 35°09' W 008°38'410.3
2017-Oct-26 00:50N 35°13' W 008°36'2310.0
2017-Oct-25 22:32N 35°31' W 008°18'3 9.9
2017-Oct-25 22:13N 35°33' W 008°15'4 9.6
2017-Oct-25 21:50N 35°36' W 008°12'410.0
2017-Oct-25 21:28N 35°39' W 008°09'510.0
2017-Oct-25 21:00N 35°43' W 008°06'13 9.9
2017-Oct-25 19:43N 35°53' W 007°56'2 9.7
2017-Oct-25 19:28N 35°54' W 007°54'5 9.8
2017-Oct-25 19:00N 35°58' W 007°51'38 9.5
2017-Oct-25 15:03N 36°25' W 007°19'0 3.6
2017-Oct-25 14:57N 36°26' W 007°19'35 2.2
2017-Oct-24 23:28N 36°57' W 007°00'  
2017-Oct-21 09:53N 28°40' W 014°34'512.7
2017-Oct-21 09:30N 28°36' W 014°37'612.5
2017-Oct-21 09:00N 28°31' W 014°41'612.3
2017-Oct-21 08:30N 28°26' W 014°45'612.2
2017-Oct-21 08:00N 28°21' W 014°49'612.3
2017-Oct-21 07:30N 28°15' W 014°52'612.6
2017-Oct-21 07:00N 28°09' W 014°54'612.6
2017-Oct-21 06:30N 28°03' W 014°57'612.8
2017-Oct-21 06:00N 27°57' W 014°59'612.6
2017-Oct-21 05:30N 27°51' W 015°01'612.7
2017-Oct-21 05:00N 27°45' W 015°04'713.3
2017-Oct-21 04:30N 27°39' W 015°06'  
Track history (hours):
 
Tides and Currents Weather Stations Pressure Air Temp Water Temp Dewpoint Dewpoint Depression Visibility Wind Speed Wind Dir Waves Ship Positions

3 Oak

Last reported at 2017-Oct-30 11:35 UTC. Time now 2017-Nov-22 18:38 UTC.
Position N 27°05' W 016°02'.
Warning: this ship's position is 23 days out of date.

Length 125 m; draft 6.8 m.

Type: Cargo ship. MMSI: 538004672.

Date/timePositionNaut miles runAvg speedWind from/ knotsBaromVisibWave heightAir tempDewpointWater temp
2017-Oct-30 11:35N 27°05' W 016°02'0 1.8
2017-Oct-30 11:28N 27°05' W 016°02'72 1.8
2017-Oct-28 18:54N 28°08' W 015°24'0 0.0
2017-Oct-28 18:24N 28°08' W 015°24'0 0.0
2017-Oct-28 17:54N 28°08' W 015°24'0 0.1
2017-Oct-28 17:24N 28°08' W 015°24'0 0.0
2017-Oct-28 16:54N 28°08' W 015°24'0 0.1
2017-Oct-28 16:24N 28°08' W 015°24'0 0.1
2017-Oct-28 15:57N 28°08' W 015°24'0 0.0
2017-Oct-28 15:27N 28°08' W 015°24'0 0.0
2017-Oct-28 14:57N 28°08' W 015°24'0 0.0
2017-Oct-28 14:27N 28°08' W 015°24'0 0.0
2017-Oct-28 13:57N 28°08' W 015°24'0 0.0
2017-Oct-28 13:27N 28°08' W 015°24'0 0.1
2017-Oct-28 13:00N 28°08' W 015°24'0 0.0
2017-Oct-28 12:30N 28°08' W 015°24'0 0.0
2017-Oct-28 12:00N 28°08' W 015°24'0 0.0
2017-Oct-28 11:30N 28°08' W 015°24'0 0.0
2017-Oct-28 11:00N 28°08' W 015°24'0 0.0
2017-Oct-28 10:30N 28°08' W 015°24'0 0.1
2017-Oct-28 10:00N 28°08' W 015°24'0 0.4
2017-Oct-28 09:30N 28°08' W 015°24'0 0.5
2017-Oct-28 09:00N 28°08' W 015°23'1 1.8
2017-Oct-28 08:30N 28°08' W 015°22'2 3.8
2017-Oct-28 08:00N 28°10' W 015°21'3 5.9
2017-Oct-28 07:30N 28°12' W 015°19'5 9.4
2017-Oct-28 07:00N 28°15' W 015°16'4 8.1
2017-Oct-28 06:30N 28°18' W 015°13'4 8.2
2017-Oct-28 06:00N 28°22' W 015°10'4 8.6
2017-Oct-28 05:30N 28°25' W 015°07'510.8
2017-Oct-28 05:00N 28°29' W 015°03'510.9
2017-Oct-28 04:30N 28°33' W 014°59'510.7
2017-Oct-28 04:00N 28°37' W 014°55'510.5
2017-Oct-28 03:30N 28°42' W 014°51'510.4
2017-Oct-28 03:00N 28°46' W 014°48'510.2
2017-Oct-28 02:31N 28°50' W 014°44'510.2
2017-Oct-28 02:00N 28°53' W 014°40'510.2
2017-Oct-28 01:30N 28°57' W 014°36'510.2
2017-Oct-28 01:01N 29°01' W 014°33'510.4
2017-Oct-28 00:30N 29°06' W 014°29'510.7
2017-Oct-28 00:01N 29°10' W 014°25'510.8
2017-Oct-27 23:31N 29°14' W 014°21'510.7
2017-Oct-27 23:00N 29°18' W 014°17'510.6
2017-Oct-27 22:31N 29°22' W 014°14'510.6
2017-Oct-27 22:00N 29°26' W 014°10'510.7
2017-Oct-27 21:31N 29°30' W 014°06'510.8
2017-Oct-27 21:00N 29°35' W 014°02'510.9
2017-Oct-27 20:30N 29°39' W 013°58'510.6
2017-Oct-27 20:00N 29°43' W 013°54'510.6
2017-Oct-27 19:30N 29°47' W 013°50'510.5
2017-Oct-27 19:00N 29°51' W 013°46'42 7.9
2017-Oct-27 13:38N 30°24' W 013°16'1 6.6
2017-Oct-27 13:28N 30°25' W 013°15'612.1
2017-Oct-27 13:00N 30°29' W 013°11'2811.0
2017-Oct-27 10:26N 30°51' W 012°50'4 9.8
2017-Oct-27 10:00N 30°54' W 012°47'5 9.8
2017-Oct-27 09:30N 30°58' W 012°43'5 9.8
2017-Oct-27 09:00N 31°02' W 012°39'31 9.8
2017-Oct-27 05:52N 31°26' W 012°17'3 9.7
2017-Oct-27 05:31N 31°29' W 012°15'11 9.8
2017-Oct-27 04:20N 31°38' W 012°07'12910.2
2017-Oct-26 15:43N 33°17' W 010°30'210.0
2017-Oct-26 15:31N 33°19' W 010°28'9 9.9
2017-Oct-26 14:38N 33°25' W 010°21'1 9.9
2017-Oct-26 14:31N 33°26' W 010°20'6 9.9
2017-Oct-26 13:56N 33°31' W 010°16'410.0
2017-Oct-26 13:30N 33°34' W 010°13'510.1
2017-Oct-26 13:00N 33°38' W 010°09'510.0
2017-Oct-26 12:29N 33°42' W 010°05'2710.1
2017-Oct-26 09:46N 34°03' W 009°44'310.2
2017-Oct-26 09:30N 34°05' W 009°42'510.2
2017-Oct-26 09:00N 34°09' W 009°38'510.0
2017-Oct-26 08:28N 34°14' W 009°34'510.2
2017-Oct-26 07:59N 34°18' W 009°31'510.2
2017-Oct-26 07:30N 34°21' W 009°27'510.0
2017-Oct-26 07:01N 34°25' W 009°23'510.0
2017-Oct-26 06:30N 34°29' W 009°19'5 9.9
2017-Oct-26 06:00N 34°33' W 009°15'5 9.9
2017-Oct-26 05:30N 34°36' W 009°11'510.0
2017-Oct-26 04:58N 34°40' W 009°07'2010.1
2017-Oct-26 03:00N 34°56' W 008°52'910.0
2017-Oct-26 02:05N 35°02' W 008°44'2 9.9
2017-Oct-26 01:52N 35°04' W 008°42'710.5
2017-Oct-26 01:14N 35°09' W 008°38'410.3
2017-Oct-26 00:50N 35°13' W 008°36'2310.0
2017-Oct-25 22:32N 35°31' W 008°18'3 9.9
2017-Oct-25 22:13N 35°33' W 008°15'4 9.6
2017-Oct-25 21:50N 35°36' W 008°12'410.0
2017-Oct-25 21:28N 35°39' W 008°09'510.0
2017-Oct-25 21:00N 35°43' W 008°06'13 9.9
2017-Oct-25 19:43N 35°53' W 007°56'2 9.7
2017-Oct-25 19:28N 35°54' W 007°54'5 9.8
2017-Oct-25 19:00N 35°58' W 007°51'38 9.5
2017-Oct-25 15:03N 36°25' W 007°19'0 3.6
2017-Oct-25 14:57N 36°26' W 007°19'35 2.2
2017-Oct-24 23:28N 36°57' W 007°00'  
2017-Oct-21 09:53N 28°40' W 014°34'512.7
2017-Oct-21 09:30N 28°36' W 014°37'612.5
2017-Oct-21 09:00N 28°31' W 014°41'612.3
2017-Oct-21 08:30N 28°26' W 014°45'612.2
2017-Oct-21 08:00N 28°21' W 014°49'612.3
2017-Oct-21 07:30N 28°15' W 014°52'612.6
2017-Oct-21 07:00N 28°09' W 014°54'612.6
2017-Oct-21 06:30N 28°03' W 014°57'612.8
2017-Oct-21 06:00N 27°57' W 014°59'612.6
2017-Oct-21 05:30N 27°51' W 015°01'612.7
2017-Oct-21 05:00N 27°45' W 015°04'713.3
2017-Oct-21 04:30N 27°39' W 015°06'  

Dump ship's entire track history